Time;durP1;ratioP1;P1;durP2;ratioP2;P2;SDS_P1;SDS_P2;PMS_P1;PMS_P2;Temp;Humidity;BMP_temperature;BMP_pressure;BME280_temperature;BME280_humidity;BME280_pressure;Samples;Min_cycle;Max_cycle;Signal;HPM_P1;HPM_P2
2021/09/03 00:02:16;;;;;;;13.25;6.55;;;;;;;16.23;62.39;102213.75;5063700;28;20047;-79
2021/09/03 00:04:42;;;;;;;17.90;7.07;;;;;;;16.18;62.55;102200.75;5057952;28;20040;-79
2021/09/03 00:07:09;;;;;;;14.15;7.13;;;;;;;16.18;62.89;102213.91;5052936;28;20071;-79
2021/09/03 00:09:35;;;;;;;11.85;6.25;;;;;;;16.26;62.68;102211.00;5054777;28;20086;-79
2021/09/03 00:12:04;;;;;;;11.10;5.97;;;;;;;16.23;62.83;102211.97;5054158;28;20611;-78
2021/09/03 00:14:30;;;;;;;10.68;6.32;;;;;;;16.21;63.04;102197.13;5053952;28;20414;-78
2021/09/03 00:16:56;;;;;;;14.32;6.72;;;;;;;16.17;63.04;102202.53;5034183;28;20048;-79
2021/09/03 00:19:22;;;;;;;16.25;6.60;;;;;;;16.18;63.17;102200.75;5053446;28;20041;-78
2021/09/03 00:21:48;;;;;;;11.05;6.00;;;;;;;16.21;63.24;102205.03;5052985;28;20052;-79
2021/09/03 00:24:14;;;;;;;12.27;6.05;;;;;;;16.27;62.83;102208.31;5052883;28;20463;-79
2021/09/03 00:26:40;;;;;;;13.05;6.60;;;;;;;16.23;63.20;102200.59;5053092;28;20460;-78
2021/09/03 00:29:07;;;;;;;10.27;6.15;;;;;;;16.08;63.17;102176.53;5052715;28;20060;-79
2021/09/03 00:31:33;;;;;;;14.50;6.70;;;;;;;16.18;63.49;102187.56;5053673;28;20048;-79
2021/09/03 00:33:59;;;;;;;15.98;6.97;;;;;;;16.07;63.46;102166.06;5053244;28;20063;-78
2021/09/03 00:36:24;;;;;;;15.88;7.70;;;;;;;16.12;63.54;102179.91;5053565;28;20087;-79
2021/09/03 00:38:50;;;;;;;15.60;6.30;;;;;;;16.13;63.67;102182.47;5053039;28;20052;-78
2021/09/03 00:41:17;;;;;;;13.43;6.38;;;;;;;16.18;63.31;102182.31;5052440;28;20050;-78
2021/09/03 00:43:44;;;;;;;14.43;6.72;;;;;;;16.07;63.61;102166.91;5052133;28;20060;-79
2021/09/03 00:46:10;;;;;;;12.27;5.75;;;;;;;16.09;63.67;102161.59;5052941;28;20049;-79
2021/09/03 00:48:36;;;;;;;10.40;5.95;;;;;;;16.04;63.58;102147.72;5052633;28;20045;-79
2021/09/03 00:51:02;;;;;;;13.45;6.43;;;;;;;16.16;63.68;102179.75;5052048;28;20059;-79
2021/09/03 00:53:29;;;;;;;13.60;6.60;;;;;;;16.07;63.63;102168.69;5052586;28;20156;-79
2021/09/03 00:55:55;;;;;;;17.08;6.95;;;;;;;16.07;63.87;102152.88;5052507;28;20049;-78
2021/09/03 00:58:21;;;;;;;15.73;7.03;;;;;;;16.11;63.86;102171.16;5051847;28;20064;-79
2021/09/03 01:00:49;;;;;;;13.60;6.55;;;;;;;16.09;64.17;102167.72;5051575;28;20060;-79
2021/09/03 01:03:16;;;;;;;16.02;6.97;;;;;;;16.00;64.46;102155.75;5051456;28;20094;-79
2021/09/03 01:05:42;;;;;;;14.15;6.88;;;;;;;16.13;63.98;102165.81;5052744;28;20382;-79
2021/09/03 01:08:08;;;;;;;14.75;6.78;;;;;;;16.15;63.71;102162.22;5052031;28;20060;-79
2021/09/03 01:10:34;;;;;;;17.67;7.18;;;;;;;16.15;63.98;102159.56;5054832;28;20056;-79
2021/09/03 01:13:01;;;;;;;20.67;7.70;;;;;;;16.19;63.97;102149.78;5063120;28;20055;-78
2021/09/03 01:15:27;;;;;;;13.45;6.72;;;;;;;16.14;64.06;102147.31;5069122;28;20041;-79
2021/09/03 01:17:53;;;;;;;16.95;7.15;;;;;;;16.04;64.11;102145.09;5055799;28;20055;-79
2021/09/03 01:20:19;;;;;;;13.45;6.72;;;;;;;16.02;64.50;102137.25;5051429;28;20404;-79
2021/09/03 01:22:45;;;;;;;14.48;6.88;;;;;;;15.90;64.83;102121.94;5051630;28;20044;-79
2021/09/03 01:25:12;;;;;;;13.55;6.50;;;;;;;16.03;64.87;102154.78;5052693;28;20118;-79
2021/09/03 01:27:40;;;;;;;13.45;7.03;;;;;;;16.06;64.68;102140.63;5052100;28;20494;-79
2021/09/03 01:30:08;;;;;;;16.48;6.28;;;;;;;16.06;64.51;102130.94;5051128;28;20052;-79
2021/09/03 01:32:34;;;;;;;14.10;6.55;;;;;;;15.95;64.81;102117.34;5056910;28;20064;-79
2021/09/03 01:35:00;;;;;;;16.35;6.90;;;;;;;15.96;65.30;102130.44;5072399;28;20132;-79
2021/09/03 01:37:26;;;;;;;14.95;7.13;;;;;;;15.91;65.22;102118.38;5056804;28;20497;-79
2021/09/03 01:39:52;;;;;;;14.82;7.15;;;;;;;15.91;65.33;102121.84;5052073;28;20048;-79
2021/09/03 01:42:18;;;;;;;17.20;7.88;;;;;;;15.84;65.44;102109.84;5052484;28;20055;-79
2021/09/03 01:44:44;;;;;;;17.27;7.53;;;;;;;15.94;65.20;102124.38;5051102;28;20049;-79
2021/09/03 01:47:10;;;;;;;14.23;7.25;;;;;;;15.95;65.31;102112.06;5051308;28;20562;-79
2021/09/03 01:49:36;;;;;;;14.73;7.03;;;;;;;15.96;65.18;102116.44;5053078;28;20040;-79
2021/09/03 01:52:02;;;;;;;13.75;6.72;;;;;;;15.90;65.32;102108.75;5055248;28;20098;-78
2021/09/03 01:54:28;;;;;;;12.10;6.78;;;;;;;15.98;65.37;102125.13;5055679;28;20052;-79
2021/09/03 01:56:54;;;;;;;15.05;6.90;;;;;;;15.97;65.47;102116.34;5055743;28;20056;-79
2021/09/03 01:59:20;;;;;;;15.15;7.65;;;;;;;15.78;65.60;102084.59;5055645;28;20055;-79
2021/09/03 02:01:46;;;;;;;16.73;6.95;;;;;;;15.94;65.65;102110.34;5055110;28;20079;-79
2021/09/03 02:04:12;;;;;;;17.58;7.20;;;;;;;15.81;65.72;102088.88;5055535;28;20056;-79
2021/09/03 02:06:38;;;;;;;14.45;7.03;;;;;;;15.89;65.99;102109.66;5054198;28;20539;-79
2021/09/03 02:09:04;;;;;;;13.80;6.93;;;;;;;15.90;65.90;102106.97;5069937;28;20045;-78
2021/09/03 02:11:30;;;;;;;13.35;7.55;;;;;;;15.76;66.17;102083.78;5076726;28;20064;-78
2021/09/03 02:13:56;;;;;;;13.30;6.25;;;;;;;15.87;65.88;102090.44;5064217;28;20048;-79
2021/09/03 02:16:22;;;;;;;13.50;6.60;;;;;;;15.67;65.73;102052.53;5054275;28;20044;-80
2021/09/03 02:18:48;;;;;;;17.45;7.55;;;;;;;15.91;66.13;102092.03;5055705;28;20071;-79
2021/09/03 02:21:15;;;;;;;15.75;7.18;;;;;;;15.90;65.79;102085.06;5055461;28;20087;-79
2021/09/03 02:23:42;;;;;;;13.30;7.05;;;;;;;15.83;66.37;102087.94;5055286;28;20680;-79
2021/09/03 02:26:07;;;;;;;16.20;7.60;;;;;;;15.81;66.18;102073.91;5055743;28;20151;-79
2021/09/03 02:28:34;;;;;;;13.90;6.55;;;;;;;15.75;66.32;102073.31;5055202;28;20508;-79
2021/09/03 02:31:00;;;;;;;16.42;6.60;;;;;;;15.72;66.57;102060.25;5055002;28;20053;-79
2021/09/03 02:33:26;;;;;;;14.88;7.03;;;;;;;15.67;66.41;102060.41;5055394;28;20052;-79
2021/09/03 02:35:53;;;;;;;16.40;7.65;;;;;;;15.67;66.56;102058.66;5056390;28;20052;-79
2021/09/03 02:38:19;;;;;;;14.05;6.78;;;;;;;15.75;66.43;102068.06;5077003;28;20127;-79
2021/09/03 02:40:45;;;;;;;16.35;6.88;;;;;;;15.84;66.37;102079.13;5076536;28;20060;-78
2021/09/03 02:43:11;;;;;;;15.70;6.95;;;;;;;15.73;66.48;102054.06;5076711;28;20047;-79
2021/09/03 02:45:37;;;;;;;13.18;6.35;;;;;;;15.70;66.28;102049.78;5077361;28;20109;-78
2021/09/03 02:48:03;;;;;;;15.93;6.80;;;;;;;15.74;66.45;102058.44;5076699;28;20033;-78
2021/09/03 02:50:30;;;;;;;13.05;6.90;;;;;;;15.70;66.47;102049.78;5065867;28;20045;-80
2021/09/03 02:52:58;;;;;;;14.40;7.35;;;;;;;15.58;66.29;102021.31;5060759;28;20501;-79
2021/09/03 02:55:26;;;;;;;18.50;6.95;;;;;;;15.79;66.37;102053.84;5052654;28;20132;-79
2021/09/03 02:57:52;;;;;;;18.48;7.43;;;;;;;15.81;66.54;102055.50;5054524;28;20045;-79
2021/09/03 03:00:18;;;;;;;16.58;7.60;;;;;;;15.79;66.49;102053.84;5054082;28;20044;-79
2021/09/03 03:02:45;;;;;;;12.70;6.35;;;;;;;15.75;66.67;102055.72;5052586;28;20471;-79
2021/09/03 03:05:11;;;;;;;13.77;6.60;;;;;;;15.74;66.60;102051.38;5054900;28;20501;-79
2021/09/03 03:07:37;;;;;;;15.32;7.50;;;;;;;15.72;66.67;102042.69;5058145;28;20044;-79
2021/09/03 03:10:08;;;;;;;15.32;6.53;;;;;;;15.76;66.55;102044.28;5054224;28;20481;-79
2021/09/03 03:12:34;;;;;;;14.82;7.07;;;;;;;15.65;66.64;102031.53;5054854;28;20044;-79
2021/09/03 03:15:01;;;;;;;14.43;6.82;;;;;;;15.68;66.49;102035.81;5048301;28;20052;-79
2021/09/03 03:17:27;;;;;;;16.10;7.55;;;;;;;15.73;66.53;102048.81;5055046;28;20448;-80
2021/09/03 03:19:53;;;;;;;14.60;6.90;;;;;;;15.72;66.82;102042.69;5054447;28;20041;-79
2021/09/03 03:22:19;;;;;;;15.75;7.53;;;;;;;15.75;66.89;102045.19;5054099;28;20052;-80
2021/09/03 03:24:45;;;;;;;14.15;7.65;;;;;;;15.59;67.10;102028.28;5054709;28;20037;-80
2021/09/03 03:27:11;;;;;;;17.45;7.47;;;;;;;15.60;67.06;102032.63;5053703;28;20183;-80
2021/09/03 03:29:38;;;;;;;16.25;7.28;;;;;;;15.58;67.11;102026.56;5054657;28;20045;-80
2021/09/03 03:32:04;;;;;;;16.23;7.22;;;;;;;15.55;67.07;102021.41;5047870;28;20409;-79
2021/09/03 03:34:30;;;;;;;13.80;7.13;;;;;;;15.53;67.17;102010.94;5053417;28;20045;-80
2021/09/03 03:36:56;;;;;;;19.73;7.53;;;;;;;15.48;67.11;101997.97;5054147;28;20045;-79
2021/09/03 03:39:22;;;;;;;16.35;7.82;;;;;;;15.71;66.85;102030.44;5055289;28;20076;-79
2021/09/03 03:41:48;;;;;;;16.90;7.13;;;;;;;15.71;67.19;102032.22;5062083;28;20124;-79
2021/09/03 03:44:14;;;;;;;15.85;7.60;;;;;;;15.69;67.22;102027.84;5055964;28;20041;-79
2021/09/03 03:46:41;;;;;;;16.98;7.90;;;;;;;15.50;67.26;101995.25;5053213;28;20077;-79
2021/09/03 03:49:07;;;;;;;15.23;7.82;;;;;;;15.68;67.43;102026.16;5054396;28;20049;-79
2021/09/03 03:51:34;;;;;;;13.95;7.18;;;;;;;15.52;67.19;101999.56;5053605;28;20130;-79
2021/09/03 03:54:01;;;;;;;21.33;7.57;;;;;;;15.50;67.84;102000.53;5054220;28;20147;-79
2021/09/03 03:56:30;;;;;;;17.40;7.65;;;;;;;15.61;67.67;102015.91;5054235;28;20056;-78
2021/09/03 03:58:56;;;;;;;15.05;7.57;;;;;;;15.53;67.27;102001.28;5053823;28;20041;-79
2021/09/03 04:01:22;;;;;;;21.08;8.40;;;;;;;15.53;67.65;102001.28;5047720;28;20138;-78
2021/09/03 04:03:48;;;;;;;14.75;6.93;;;;;;;15.65;67.30;102017.53;5043439;28;20055;-79
2021/09/03 04:06:14;;;;;;;17.17;8.15;;;;;;;15.49;67.47;101991.78;5053193;28;20045;-79
2021/09/03 04:08:40;;;;;;;16.08;7.15;;;;;;;15.67;67.51;102024.44;5053702;28;20049;-79
2021/09/03 04:11:07;;;;;;;14.40;7.50;;;;;;;15.47;67.56;101987.50;5052129;28;20056;-78
2021/09/03 04:13:33;;;;;;;14.50;7.78;;;;;;;15.57;67.57;102007.28;5055165;28;20124;-78
2021/09/03 04:15:59;;;;;;;11.77;8.02;;;;;;;15.62;67.81;102017.63;5056755;28;20041;-79
2021/09/03 04:18:25;;;;;;;20.92;8.15;;;;;;;15.57;67.92;102011.69;5055012;28;20073;-79
2021/09/03 04:20:51;;;;;;;15.07;7.70;;;;;;;15.52;67.82;102011.88;5054180;28;20102;-79
2021/09/03 04:23:17;;;;;;;20.90;8.60;;;;;;;15.49;68.08;102006.69;5053829;28;20049;-79
2021/09/03 04:25:43;;;;;;;17.95;8.38;;;;;;;15.58;67.92;102013.41;5054766;28;20045;-79
2021/09/03 04:28:08;;;;;;;17.45;8.70;;;;;;;15.60;67.80;102006.28;5057838;28;20114;-79
2021/09/03 04:30:34;;;;;;;19.42;8.73;;;;;;;15.62;67.63;102017.63;5058121;28;20049;-80
2021/09/03 04:33:00;;;;;;;17.02;8.05;;;;;;;15.52;68.00;101999.56;5055737;28;20068;-79
2021/09/03 04:35:26;;;;;;;23.98;8.20;;;;;;;15.45;67.97;101990.19;5054109;28;20098;-79
2021/09/03 04:37:52;;;;;;;13.98;7.47;;;;;;;15.40;67.99;101980.75;5053282;28;20401;-79
2021/09/03 04:40:20;;;;;;;15.43;8.15;;;;;;;15.46;67.98;101988.41;5053239;28;20049;-79
2021/09/03 04:42:46;;;;;;;17.05;8.13;;;;;;;15.48;68.59;102005.84;5053057;28;20041;-80
2021/09/03 04:45:13;;;;;;;16.92;8.60;;;;;;;15.44;68.60;102006.91;5052647;28;20082;-79
2021/09/03 04:47:39;;;;;;;22.42;8.82;;;;;;;15.33;68.80;101985.38;5053347;28;20041;-79
2021/09/03 04:50:08;;;;;;;16.95;7.63;;;;;;;15.39;68.50;101989.56;5052938;28;20485;-79
2021/09/03 04:52:34;;;;;;;15.02;8.02;;;;;;;15.53;68.42;102011.78;5053004;28;20048;-79
2021/09/03 04:55:00;;;;;;;17.60;8.38;;;;;;;15.26;68.31;101968.09;5053182;28;20463;-80
2021/09/03 04:57:26;;;;;;;17.25;7.88;;;;;;;15.45;68.45;101999.84;5053211;28;20111;-79
2021/09/03 04:59:53;;;;;;;20.42;8.13;;;;;;;15.51;68.25;102013.66;5053809;28;20045;-80
2021/09/03 05:02:19;;;;;;;16.80;8.65;;;;;;;15.29;68.77;101982.00;5052575;28;20041;-79
2021/09/03 05:04:45;;;;;;;21.15;8.80;;;;;;;15.46;68.39;102017.34;5053233;28;20098;-80
2021/09/03 05:07:11;;;;;;;18.05;8.73;;;;;;;15.41;68.27;102004.38;5052610;28;20053;-79
2021/09/03 05:09:37;;;;;;;16.77;7.57;;;;;;;15.46;68.07;102006.84;5053172;28;20049;-79
2021/09/03 05:12:04;;;;;;;21.35;9.40;;;;;;;15.50;68.02;102008.41;5052394;28;20478;-80
2021/09/03 05:14:30;;;;;;;16.15;8.43;;;;;;;15.52;68.20;102009.22;5051562;28;20052;-80
2021/09/03 05:16:57;;;;;;;21.52;8.68;;;;;;;15.51;68.37;102011.03;5052981;28;20091;-79
2021/09/03 05:19:23;;;;;;;18.98;9.68;;;;;;;15.26;68.59;101983.88;5052277;28;20053;-79
2021/09/03 05:21:50;;;;;;;18.42;7.85;;;;;;;15.42;68.78;102000.81;5052594;28;20467;-79
2021/09/03 05:24:16;;;;;;;20.20;8.18;;;;;;;15.43;68.83;102001.69;5053357;28;20049;-80
2021/09/03 05:26:42;;;;;;;20.60;9.27;;;;;;;15.41;69.02;102001.75;5055981;28;20045;-80
2021/09/03 05:29:08;;;;;;;16.52;8.30;;;;;;;15.42;68.69;101995.56;5056926;28;20110;-80
2021/09/03 05:31:34;;;;;;;16.38;9.20;;;;;;;15.46;68.79;101998.94;5071571;28;20102;-80
2021/09/03 05:34:00;;;;;;;20.70;10.68;;;;;;;15.51;68.54;102005.75;5037114;28;20132;-80
2021/09/03 05:36:27;;;;;;;18.05;10.02;;;;;;;15.45;68.74;102002.47;5045795;28;20053;-79
2021/09/03 05:38:53;;;;;;;19.40;10.45;;;;;;;15.42;68.39;101995.56;5056597;28;20048;-79
2021/09/03 05:41:19;;;;;;;24.27;10.75;;;;;;;15.57;68.35;102011.69;5056430;28;20076;-79
2021/09/03 05:43:45;;;;;;;21.27;8.50;;;;;;;15.49;68.24;102009.34;5055623;28;20037;-78
2021/09/03 05:46:11;;;;;;;15.40;8.10;;;;;;;15.49;68.15;102009.34;5055323;28;20052;-79
2021/09/03 05:48:37;;;;;;;14.88;8.15;;;;;;;15.58;68.15;102010.78;5056190;28;20098;-79
2021/09/03 05:51:03;;;;;;;15.10;8.23;;;;;;;15.36;68.03;101977.38;5056386;28;20429;-79
2021/09/03 05:53:29;;;;;;;21.58;9.75;;;;;;;15.59;68.10;102015.97;5057162;28;20048;-78
2021/09/03 05:55:55;;;;;;;19.75;8.88;;;;;;;15.68;67.91;102009.50;5055155;28;20041;-79
2021/09/03 05:58:21;;;;;;;18.30;9.15;;;;;;;15.65;67.86;102007.00;5056853;28;20051;-79
2021/09/03 06:00:47;;;;;;;17.05;8.50;;;;;;;15.60;67.91;101985.25;5056293;28;20041;-78
2021/09/03 06:03:13;;;;;;;18.30;8.90;;;;;;;15.65;68.14;102005.22;5057290;28;20048;-79
2021/09/03 06:05:39;;;;;;;16.45;9.05;;;;;;;15.65;68.17;102007.84;5056508;28;20049;-79
2021/09/03 06:08:05;;;;;;;23.75;11.02;;;;;;;15.41;68.86;101985.09;5055836;28;20128;-80
2021/09/03 06:10:31;;;;;;;19.42;8.77;;;;;;;15.45;69.07;101991.97;5055778;28;20053;-80
2021/09/03 06:12:58;;;;;;;19.38;9.68;;;;;;;15.42;69.31;101986.81;5055347;28;20041;-80
2021/09/03 06:15:25;;;;;;;20.52;10.60;;;;;;;15.47;69.96;101998.88;5054585;28;20048;-79
2021/09/03 06:17:51;;;;;;;19.58;10.23;;;;;;;15.44;70.43;102000.75;5055478;28;20049;-78
2021/09/03 06:20:17;;;;;;;19.25;10.25;;;;;;;15.44;70.75;102004.28;5055113;28;20421;-81
2021/09/03 06:22:43;;;;;;;22.88;10.55;;;;;;;15.24;71.22;101983.94;5055704;28;20481;-79
2021/09/03 06:25:09;;;;;;;20.15;11.05;;;;;;;15.33;71.63;101993.28;5056489;28;20091;-79
2021/09/03 06:27:35;;;;;;;25.13;11.35;;;;;;;15.30;71.65;101988.97;5054541;28;20052;-79
2021/09/03 06:30:01;;;;;;;23.00;10.68;;;;;;;15.33;71.45;101983.63;5055266;28;20090;-78
2021/09/03 06:32:28;;;;;;;21.88;9.75;;;;;;;15.47;71.54;101998.88;5055027;28;20132;-79
2021/09/03 06:35:01;;;;;;;25.02;10.32;;;;;;;15.50;71.81;102008.41;5055306;28;20045;-79
2021/09/03 06:37:29;;;;;;;20.45;9.48;;;;;;;15.42;71.99;101992.94;5055388;28;20045;-79
2021/09/03 06:39:56;;;;;;;17.80;9.32;;;;;;;15.42;72.30;102006.09;5054877;28;20071;-78
2021/09/03 06:42:23;;;;;;;19.67;9.35;;;;;;;15.42;72.28;102010.50;5054736;28;20041;-78
2021/09/03 06:44:50;;;;;;;18.20;9.82;;;;;;;15.42;72.22;101994.72;5057471;28;20064;-78
2021/09/03 06:47:17;;;;;;;19.52;9.23;;;;;;;15.59;71.85;102013.34;5055927;28;20053;-78
2021/09/03 06:49:44;;;;;;;24.25;9.95;;;;;;;15.61;71.79;102010.66;5058811;28;20108;-79
2021/09/03 06:52:12;;;;;;;24.77;9.52;;;;;;;15.53;71.81;101985.47;5054756;28;20146;-79
2021/09/03 06:54:40;;;;;;;23.27;9.38;;;;;;;15.65;71.81;102004.38;5054855;28;20045;-78
2021/09/03 06:57:06;;;;;;;21.63;10.30;;;;;;;15.50;72.20;101984.75;5055464;28;20099;-78
2021/09/03 06:59:33;;;;;;;19.27;9.32;;;;;;;15.68;71.82;102010.38;5055795;28;20052;-78
2021/09/03 07:01:59;;;;;;;18.25;8.95;;;;;;;15.76;71.60;101998.66;5075019;28;20044;-79
2021/09/03 07:04:25;;;;;;;24.20;10.55;;;;;;;15.80;71.38;101985.31;5069602;28;20052;-79
2021/09/03 07:06:52;;;;;;;18.02;9.45;;;;;;;16.05;70.96;102007.22;5052498;28;20049;-79
2021/09/03 07:09:19;;;;;;;22.08;9.90;;;;;;;16.13;70.57;102003.34;5053693;28;20448;-78
2021/09/03 07:11:45;;;;;;;21.42;9.68;;;;;;;16.30;70.02;102007.94;5054338;28;20045;-78
2021/09/03 07:14:11;;;;;;;18.17;9.27;;;;;;;16.33;69.67;102006.94;5055345;28;20045;-79
2021/09/03 07:16:37;;;;;;;22.17;10.15;;;;;;;16.33;69.60;101993.75;5054142;28;20045;-78
2021/09/03 07:19:03;;;;;;;21.50;10.38;;;;;;;16.44;69.76;102017.91;5054025;28;20051;-79
2021/09/03 07:21:31;;;;;;;22.35;11.13;;;;;;;16.57;69.45;102007.69;5054208;28;20052;-79
2021/09/03 07:23:58;;;;;;;19.33;9.90;;;;;;;16.69;68.90;101998.41;5054700;28;20049;-79
2021/09/03 07:26:24;;;;;;;19.85;9.88;;;;;;;16.75;68.55;102011.31;5053193;28;20063;-78
2021/09/03 07:28:50;;;;;;;21.33;9.73;;;;;;;16.73;66.25;101984.16;5054083;28;20061;-78
2021/09/03 07:31:17;;;;;;;22.95;10.45;;;;;;;16.77;65.92;102008.59;5069773;28;20052;-80
2021/09/03 07:33:43;;;;;;;20.02;9.25;;;;;;;16.77;65.50;101990.16;5054629;28;20045;-79
2021/09/03 07:36:10;;;;;;;19.13;8.80;;;;;;;16.87;64.03;101999.38;5053021;28;20146;-79
2021/09/03 07:38:36;;;;;;;19.33;9.98;;;;;;;17.08;63.87;102000.25;5053777;28;20048;-79
2021/09/03 07:41:02;;;;;;;15.93;8.55;;;;;;;17.10;63.34;101994.88;5053242;28;20045;-79
2021/09/03 07:43:28;;;;;;;20.23;8.98;;;;;;;17.00;62.78;101977.78;5053978;28;20056;-79
2021/09/03 07:45:56;;;;;;;20.63;9.25;;;;;;;17.14;62.08;101978.00;5052873;28;20044;-77
2021/09/03 07:48:23;;;;;;;13.57;7.85;;;;;;;17.44;61.59;101983.66;5053169;28;20048;-77
2021/09/03 07:50:49;;;;;;;16.98;8.32;;;;;;;17.63;61.10;101976.66;5053689;28;20045;-77
2021/09/03 07:53:16;;;;;;;22.25;9.32;;;;;;;17.73;60.60;101977.91;5053897;28;20509;-77
2021/09/03 07:55:42;;;;;;;18.40;9.20;;;;;;;17.81;60.44;101964.34;5044756;28;20038;-77
2021/09/03 07:58:08;;;;;;;17.63;9.30;;;;;;;17.94;60.54;101986.56;5048435;28;20414;-77
2021/09/03 08:00:36;;;;;;;21.95;8.85;;;;;;;18.07;60.78;101979.78;5046334;28;20049;-77
2021/09/03 08:03:03;;;;;;;18.65;9.10;;;;;;;18.09;60.96;101977.09;5053397;28;20048;-76
2021/09/03 08:05:29;;;;;;;20.42;9.45;;;;;;;18.02;60.85;101967.75;5053146;28;20045;-77
2021/09/03 08:07:55;;;;;;;18.17;8.70;;;;;;;18.01;60.80;101969.53;5034010;28;20045;-77
2021/09/03 08:10:21;;;;;;;16.92;8.90;;;;;;;18.00;61.09;101977.53;5033745;28;20049;-79
2021/09/03 08:12:48;;;;;;;17.27;9.38;;;;;;;17.84;61.34;101953.63;5034124;28;20418;-78
2021/09/03 08:15:16;;;;;;;16.38;8.30;;;;;;;17.85;61.57;101977.31;5050752;28;20045;-77
2021/09/03 08:17:42;;;;;;;18.25;9.88;;;;;;;17.73;61.99;101964.72;5053798;28;20106;-77
2021/09/03 08:20:10;;;;;;;20.85;9.32;;;;;;;17.72;62.49;101978.84;5054125;28;20045;-77
2021/09/03 08:22:36;;;;;;;19.00;9.35;;;;;;;17.86;61.24;101970.28;5054347;28;20041;-77
2021/09/03 08:25:03;;;;;;;21.52;8.85;;;;;;;17.91;61.09;101974.38;5054886;28;20048;-77
2021/09/03 08:27:29;;;;;;;19.27;9.07;;;;;;;17.80;60.77;101973.19;5054064;28;20053;-78
2021/09/03 08:29:55;;;;;;;17.05;9.02;;;;;;;17.83;60.64;101975.69;5054486;28;20473;-77
2021/09/03 08:32:20;;;;;;;19.15;8.75;;;;;;;17.89;60.53;101970.97;5033710;28;20084;-76
2021/09/03 08:34:46;;;;;;;18.40;9.43;;;;;;;17.88;60.11;101963.97;5034624;28;20049;-77
2021/09/03 08:37:13;;;;;;;20.55;9.38;;;;;;;17.87;60.12;101977.25;5053201;28;20400;-77
2021/09/03 08:39:39;;;;;;;17.02;8.18;;;;;;;17.53;60.95;101968.31;5058201;28;20066;-77
2021/09/03 08:42:06;;;;;;;19.88;8.45;;;;;;;17.32;61.30;101934.09;5072204;28;20106;-77
2021/09/03 08:44:33;;;;;;;22.65;9.38;;;;;;;17.53;61.68;101969.16;5074092;28;20056;-77
2021/09/03 08:46:59;;;;;;;17.42;9.07;;;;;;;17.36;62.71;101967.31;5068632;28;20041;-77
2021/09/03 08:49:26;;;;;;;16.52;8.60;;;;;;;17.35;63.19;101970.03;5052891;28;20056;-77
2021/09/03 08:51:53;;;;;;;20.15;9.20;;;;;;;17.22;63.50;101970.59;5052520;28;20435;-77
2021/09/03 08:54:21;;;;;;;19.02;10.05;;;;;;;17.23;63.36;101967.00;5053080;28;20045;-77
2021/09/03 08:56:47;;;;;;;18.85;9.07;;;;;;;17.19;63.76;101976.00;5052472;28;20041;-76
2021/09/03 08:59:14;;;;;;;18.23;8.93;;;;;;;17.41;62.71;101967.94;5052156;28;20493;-77
2021/09/03 09:01:40;;;;;;;19.90;9.10;;;;;;;17.63;60.18;101971.38;5045356;28;20053;-76
2021/09/03 09:04:14;;;;;;;17.05;8.63;;;;;;;18.07;59.12;101966.59;5034938;28;20048;-76
2021/09/03 09:07:01;;;;;;;21.73;9.10;;;;;;;18.35;58.58;101969.66;5033047;28;20053;-76
2021/09/03 09:09:36;;;;;;;18.58;9.07;;;;;;;18.55;57.27;101977.41;5035596;28;20103;-75
2021/09/03 09:12:11;;;;;;;16.80;8.15;;;;;;;18.54;56.74;101977.47;5032742;28;20140;-75
2021/09/03 09:15:03;;;;;;;14.73;8.00;;;;;;;18.62;55.52;101980.59;5033596;28;20081;-75
2021/09/03 09:17:43;;;;;;;18.23;9.35;;;;;;;18.47;54.45;101957.56;5032646;28;20048;-75
2021/09/03 09:20:16;;;;;;;16.80;8.63;;;;;;;18.24;55.42;101978.13;5031628;28;20053;-75
2021/09/03 09:23:07;;;;;;;16.60;8.32;;;;;;;18.45;55.26;101978.81;5032786;28;20065;-74
2021/09/03 09:25:36;;;;;;;14.10;8.25;;;;;;;18.54;54.53;101981.00;5033584;28;20072;-75
2021/09/03 09:28:22;;;;;;;15.55;7.78;;;;;;;18.61;53.56;101970.94;5034249;28;20053;-75
2021/09/03 09:30:52;;;;;;;16.75;7.65;;;;;;;18.61;53.46;101968.28;5033935;28;20128;-76
2021/09/03 09:33:21;;;;;;;15.10;8.05;;;;;;;18.85;52.44;101978.53;5032693;28;20052;-75
2021/09/03 09:35:55;;;;;;;12.50;7.35;;;;;;;18.71;52.24;101956.31;5039321;28;20041;-76
2021/09/03 09:38:24;;;;;;;10.82;7.57;;;;;;;18.87;51.99;101959.00;5034959;28;20111;-77
2021/09/03 09:40:51;;;;;;;12.48;7.50;;;;;;;18.90;51.43;101954.50;5034078;28;20053;-75
2021/09/03 09:43:25;;;;;;;13.50;7.82;;;;;;;18.94;50.39;101948.97;5033898;28;20131;-76
2021/09/03 09:46:11;;;;;;;12.68;7.60;;;;;;;19.15;50.35;101961.97;5033522;28;20049;-75
2021/09/03 09:48:53;;;;;;;15.95;7.95;;;;;;;19.45;49.76;101953.28;5031291;28;20045;-74
2021/09/03 09:51:31;;;;;;;13.55;7.70;;;;;;;19.61;49.39;101963.88;5032469;28;20114;-74
2021/09/03 09:54:06;;;;;;;13.05;8.38;;;;;;;19.72;49.36;101960.63;5032477;28;20045;-78
2021/09/03 09:56:38;;;;;;;13.48;8.68;;;;;;;19.57;49.45;101968.50;5031717;28;20102;-74
2021/09/03 09:59:09;;;;;;;16.20;9.98;;;;;;;19.32;49.97;101953.97;5032865;28;20057;-75
2021/09/03 10:01:37;;;;;;;17.13;11.75;;;;;;;19.24;49.80;101968.56;5031737;28;20112;-75
2021/09/03 10:04:08;;;;;;;19.95;11.48;;;;;;;19.45;48.98;101969.19;5032983;28;20343;-75
2021/09/03 10:06:36;;;;;;;18.02;12.05;;;;;;;19.24;49.12;101956.19;5033957;28;20516;-75
2021/09/03 10:09:06;;;;;;;14.48;11.00;;;;;;;19.28;49.39;101963.00;5034229;28;20493;-75
2021/09/03 10:11:33;;;;;;;16.80;11.32;;;;;;;19.12;49.78;101957.69;5035925;28;20041;-75
2021/09/03 10:14:00;;;;;;;19.70;14.50;;;;;;;18.95;50.33;101957.78;5037883;28;20049;-75
2021/09/03 10:16:26;;;;;;;16.23;12.80;;;;;;;19.06;50.51;101957.19;5037212;28;20527;-76
2021/09/03 10:18:56;;;;;;;15.02;11.88;;;;;;;19.23;50.44;101962.41;5036783;28;20053;-76
2021/09/03 10:21:24;;;;;;;18.45;13.02;;;;;;;19.11;50.37;101961.28;5037419;28;20279;-75
2021/09/03 10:24:08;;;;;;;16.10;12.85;;;;;;;19.55;49.71;101957.13;5036505;28;20044;-75
2021/09/03 10:26:36;;;;;;;20.83;13.80;;;;;;;19.92;48.79;101973.63;5036278;28;20064;-75
2021/09/03 10:29:18;;;;;;;18.10;14.45;;;;;;;20.31;47.64;101960.75;5035622;28;20063;-75
2021/09/03 10:32:13;;;;;;;18.25;13.93;;;;;;;20.68;46.35;101965.66;5036111;28;20052;-75
2021/09/03 10:34:42;;;;;;;19.90;14.43;;;;;;;20.93;46.50;101957.94;5036680;28;20402;-74
2021/09/03 10:37:16;;;;;;;;;;;;;;;21.02;45.93;101952.97;5037364;28;20060;-75
2021/09/03 10:40:08;;;;;;;19.48;13.75;;;;;;;20.68;46.91;101958.56;5035806;28;19925;-74
2021/09/03 10:42:37;;;;;;;19.10;13.82;;;;;;;20.21;47.94;101962.25;5036625;28;20139;-75
2021/09/03 10:45:10;;;;;;;18.58;14.10;;;;;;;20.03;48.31;101948.28;5035871;28;20049;-74
2021/09/03 10:48:03;;;;;;;17.83;14.13;;;;;;;20.18;47.69;101951.81;5035431;28;20048;-74
2021/09/03 10:50:42;;;;;;;21.13;14.23;;;;;;;20.21;48.20;101946.34;5033790;28;20486;-74
2021/09/03 10:53:10;;;;;;;17.33;14.57;;;;;;;20.29;47.93;101944.09;5035217;28;20056;-74
2021/09/03 10:55:56;;;;;;;19.00;13.65;;;;;;;20.35;47.56;101938.44;5034427;28;20472;-74
2021/09/03 10:58:37;;;;;;;17.90;12.05;;;;;;;20.59;47.71;101944.06;5033308;28;20052;-73
2021/09/03 11:01:09;;;;;;;17.83;9.60;;;;;;;20.85;47.59;101935.44;5036253;28;20054;-74
2021/09/03 11:03:46;;;;;;;17.80;9.68;;;;;;;20.96;47.42;101940.97;5035551;28;20054;-74
2021/09/03 11:06:13;;;;;;;32.80;11.35;;;;;;;20.87;47.08;101947.72;5036310;28;20045;-73
2021/09/03 11:08:43;;;;;;;19.25;10.68;;;;;;;20.79;46.86;101929.59;5035766;28;20428;-74
2021/09/03 11:11:30;;;;;;;16.60;9.05;;;;;;;21.18;46.42;101929.84;5037503;28;20509;-74
2021/09/03 11:14:06;;;;;;;20.17;10.88;;;;;;;21.28;45.91;101928.28;5053278;28;20045;-76
2021/09/03 11:16:59;;;;;;;15.45;9.98;;;;;;;21.46;45.71;101921.88;5055000;28;20049;-75
2021/09/03 11:19:34;;;;;;;20.52;15.20;;;;;;;21.24;45.39;101923.28;5054344;28;20095;-76
2021/09/03 11:22:10;;;;;;;23.27;16.13;;;;;;;21.42;45.17;101911.47;5054096;28;20433;-75